createdAt,value
2019-01-18T00:02:58.203Z,97933.92
2019-01-18T00:06:02.680Z,97934.27
2019-01-18T00:09:07.858Z,97936.23
2019-01-18T00:12:12.551Z,97935.41
2019-01-18T00:15:17.381Z,97930.67
2019-01-18T00:18:22.111Z,97935.37
2019-01-18T00:21:26.541Z,97934.08
2019-01-18T00:24:31.265Z,97943.77
2019-01-18T00:27:35.999Z,97947.17
2019-01-18T00:30:40.426Z,97947.70
2019-01-18T00:33:44.867Z,97948.63
2019-01-18T00:36:49.288Z,97950.05
2019-01-18T00:39:54.002Z,97956.98
2019-01-18T00:42:58.438Z,97960.41
2019-01-18T00:46:03.154Z,97960.72
2019-01-18T00:49:07.882Z,97959.98
2019-01-18T00:52:12.327Z,97963.12
2019-01-18T00:55:16.931Z,97969.06
2019-01-18T00:58:21.366Z,97970.16
2019-01-18T01:01:25.795Z,97973.30
2019-01-18T01:04:30.616Z,97976.13
2019-01-18T01:07:35.042Z,97991.09
2019-01-18T01:10:39.479Z,97985.47
2019-01-18T01:13:43.907Z,97996.33
2019-01-18T01:16:48.617Z,98000.72
2019-01-18T01:19:53.348Z,97997.78
2019-01-18T01:22:57.792Z,98008.88
2019-01-18T01:26:02.230Z,98006.98
2019-01-18T01:29:06.669Z,98019.80
2019-01-18T01:32:11.094Z,98019.15
2019-01-18T01:35:16.307Z,98026.92
2019-01-18T01:38:20.739Z,98034.34
2019-01-18T01:41:25.165Z,98036.40
2019-01-18T01:44:29.609Z,98048.12
2019-01-18T01:47:34.285Z,98050.18
2019-01-18T01:50:39.019Z,98049.80
2019-01-18T01:53:43.748Z,98058.20
2019-01-18T01:56:48.180Z,98064.08
2019-01-18T01:59:52.622Z,98070.18
2019-01-18T02:02:57.312Z,98074.51
2019-01-18T02:06:02.069Z,98075.36
2019-01-18T02:09:07.939Z,98081.98
2019-01-18T02:12:12.369Z,98088.09
2019-01-18T02:15:20.775Z,98089.49
2019-01-18T02:18:25.204Z,98094.20
2019-01-18T02:21:29.647Z,98096.61
2019-01-18T02:24:34.746Z,98103.03
2019-01-18T02:27:40.007Z,98106.75
2019-01-18T02:30:44.426Z,98109.22
2019-01-18T02:33:48.859Z,98110.19
2019-01-18T02:36:53.871Z,98113.66
2019-01-18T02:39:58.302Z,98109.92
2019-01-18T02:43:02.726Z,98117.98
2019-01-18T02:46:07.457Z,98117.02
2019-01-18T02:49:12.186Z,98122.00
2019-01-18T02:52:16.913Z,98121.61
2019-01-18T02:55:28.510Z,98122.62
2019-01-18T02:58:27.792Z,98122.39
2019-01-18T03:01:32.538Z,98129.86
2019-01-18T03:04:36.979Z,98132.32
2019-01-18T03:07:41.404Z,98138.46
2019-01-18T03:10:46.113Z,98129.78
2019-01-18T03:13:50.855Z,98137.09
2019-01-18T03:16:55.291Z,98139.48
2019-01-18T03:19:59.997Z,98150.95
2019-01-18T03:23:04.425Z,98146.76
2019-01-18T03:26:08.866Z,98150.80
2019-01-18T03:29:13.298Z,98154.97
2019-01-18T03:32:18.016Z,98163.64
2019-01-18T03:35:23.771Z,98161.27
2019-01-18T03:38:28.189Z,98159.67
2019-01-18T03:41:33.019Z,98162.17
2019-01-18T03:44:37.745Z,98160.83
2019-01-18T03:47:42.579Z,98162.74
2019-01-18T03:50:47.015Z,98167.67
2019-01-18T03:53:51.728Z,98169.86
2019-01-18T03:56:56.166Z,98175.09
2019-01-18T04:00:00.890Z,98172.00
2019-01-18T04:03:05.620Z,98180.42
2019-01-18T04:06:10.357Z,98183.53
2019-01-18T04:09:15.081Z,98187.30
2019-01-18T04:12:19.813Z,98184.50
2019-01-18T04:15:24.980Z,98185.47
2019-01-18T04:18:29.672Z,98184.48
2019-01-18T04:21:34.405Z,98190.22
2019-01-18T04:24:39.139Z,98185.47
2019-01-18T04:27:43.566Z,98189.79
2019-01-18T04:30:47.999Z,98187.94
2019-01-18T04:33:52.424Z,98188.09
2019-01-18T04:36:57.139Z,98199.86
2019-01-18T04:40:01.882Z,98204.94
2019-01-18T04:43:06.299Z,98207.22
2019-01-18T04:46:10.738Z,98205.38
2019-01-18T04:49:15.172Z,98205.36
2019-01-18T04:52:19.877Z,98213.47
2019-01-18T04:55:24.388Z,98225.30
2019-01-18T04:58:29.131Z,98224.64
2019-01-18T05:01:33.567Z,98226.53
2019-01-18T05:04:38.072Z,98236.11
2019-01-18T05:07:42.499Z,98237.95
2019-01-18T05:10:47.233Z,98232.95
2019-01-18T05:13:51.669Z,98246.17
2019-01-18T05:16:56.386Z,98243.52
2019-01-18T05:20:00.821Z,98249.11
2019-01-18T05:23:05.309Z,98257.20
2019-01-18T05:26:09.745Z,98257.84
2019-01-18T05:29:14.171Z,98269.84
2019-01-18T05:32:18.916Z,98277.19
2019-01-18T05:35:23.878Z,98280.02
2019-01-18T05:38:28.590Z,98279.84
2019-01-18T05:41:33.025Z,98294.28
2019-01-18T05:44:37.450Z,98291.27
2019-01-18T05:47:42.171Z,98300.37
2019-01-18T05:50:46.891Z,98305.34
2019-01-18T05:53:51.313Z,98306.39
2019-01-18T05:56:55.755Z,98304.98
2019-01-18T06:00:00.467Z,98310.00
2019-01-18T06:03:06.516Z,98313.69
2019-01-18T06:06:11.261Z,98319.56
2019-01-18T06:09:15.686Z,98324.78
2019-01-18T06:12:20.415Z,98320.72
2019-01-18T06:15:25.158Z,98326.92
2019-01-18T06:18:29.581Z,98334.19
2019-01-18T06:21:34.299Z,98335.37
2019-01-18T06:24:38.726Z,98343.90
2019-01-18T06:27:43.184Z,98345.98
2019-01-18T06:30:47.602Z,98354.80
2019-01-18T06:33:52.049Z,98351.70
2019-01-18T06:36:56.485Z,98352.66
2019-01-18T06:40:00.916Z,98360.08
2019-01-18T06:43:05.676Z,98355.28
2019-01-18T06:46:10.113Z,98357.56
2019-01-18T06:49:15.417Z,98357.86
2019-01-18T06:52:19.855Z,98357.27
2019-01-18T06:55:24.602Z,98356.27
2019-01-18T06:58:29.329Z,98356.45
2019-01-18T07:01:33.938Z,98369.70
2019-01-18T07:04:41.501Z,98381.98
2019-01-18T07:07:44.846Z,98385.28
2019-01-18T07:10:49.273Z,98382.39
2019-01-18T07:13:53.713Z,98386.36
2019-01-18T07:16:58.152Z,98389.12
2019-01-18T07:20:02.591Z,98400.27
2019-01-18T07:23:07.018Z,98402.56
2019-01-18T07:26:11.699Z,98404.01
2019-01-18T07:29:16.443Z,98409.99
2019-01-18T07:32:21.160Z,98406.09
2019-01-18T07:35:25.728Z,98413.33
2019-01-18T07:38:30.433Z,98417.10
2019-01-18T07:41:35.167Z,98419.12
2019-01-18T07:44:39.890Z,98423.33
2019-01-18T07:47:44.610Z,98417.92
2019-01-18T07:50:49.033Z,98417.25
2019-01-18T07:53:53.469Z,98430.70
2019-01-18T07:56:58.187Z,98434.00
2019-01-18T08:00:02.886Z,98436.48
2019-01-18T08:03:07.654Z,98437.87
2019-01-18T08:06:13.221Z,98442.83
2019-01-18T08:09:17.654Z,98452.73
2019-01-18T08:12:22.356Z,98443.69
2019-01-18T08:15:28.939Z,98451.42
2019-01-18T08:18:33.425Z,98456.93
2019-01-18T08:21:38.186Z,98455.75
2019-01-18T08:24:42.915Z,98458.00
2019-01-18T08:27:47.417Z,98464.58
2019-01-18T08:30:52.171Z,98468.56
2019-01-18T08:33:58.184Z,98472.02
2019-01-18T08:37:02.764Z,98481.63
2019-01-18T08:40:17.508Z,98488.12
2019-01-18T08:43:22.015Z,98484.62
2019-01-18T08:46:26.780Z,98489.00
2019-01-18T08:49:31.216Z,98489.92
2019-01-18T08:52:35.935Z,98494.02
2019-01-18T08:55:40.379Z,98493.52
2019-01-18T08:58:45.091Z,98496.31
2019-01-18T09:01:49.521Z,98499.19
2019-01-18T09:04:54.373Z,98496.09
2019-01-18T09:07:58.880Z,98506.22
2019-01-18T09:11:03.394Z,98507.22
2019-01-18T09:14:07.866Z,98506.18
2019-01-18T09:17:12.654Z,98512.17
2019-01-18T09:20:23.596Z,98517.19
2019-01-18T09:23:28.095Z,98512.16
2019-01-18T09:26:32.819Z,98526.69
2019-01-18T09:29:37.265Z,98526.91
2019-01-18T09:32:41.819Z,98542.12
2019-01-18T09:35:46.272Z,98537.51
2019-01-18T09:38:50.721Z,98540.38
2019-01-18T09:41:55.194Z,98544.02
2019-01-18T09:44:59.961Z,98545.55
2019-01-18T09:48:05.372Z,98543.29
2019-01-18T09:51:09.809Z,98545.09
2019-01-18T09:54:14.562Z,98552.95
2019-01-18T09:57:19.019Z,98552.10
2019-01-18T10:00:27.516Z,98545.70
2019-01-18T10:03:31.949Z,98545.34
2019-01-18T10:06:36.431Z,98554.07
2019-01-18T10:09:41.182Z,98554.84
2019-01-18T10:12:46.170Z,98540.99
2019-01-18T10:15:50.651Z,98540.88
2019-01-18T10:18:55.130Z,98548.38
2019-01-18T10:21:59.572Z,98549.93
2019-01-18T10:25:05.661Z,98552.15
2019-01-18T10:28:10.189Z,98551.18
2019-01-18T10:31:14.916Z,98543.38
2019-01-18T10:34:19.349Z,98543.73
2019-01-18T10:37:24.021Z,98548.67
2019-01-18T10:40:28.529Z,98537.97
2019-01-18T10:43:33.051Z,98530.91
2019-01-18T10:46:37.589Z,98531.73
2019-01-18T10:49:42.070Z,98537.09
2019-01-18T10:52:46.515Z,98533.06
2019-01-18T10:55:51.339Z,98526.50
2019-01-18T10:58:55.806Z,98528.38
2019-01-18T11:02:06.944Z,98528.02
2019-01-18T11:05:10.350Z,98533.02
2019-01-18T11:08:17.526Z,98533.39
2019-01-18T11:11:21.206Z,98522.55
2019-01-18T11:14:25.957Z,98528.69
2019-01-18T11:17:30.391Z,98537.47
2019-01-18T11:20:43.182Z,98530.98
2019-01-18T11:23:47.675Z,98526.53
2019-01-18T11:26:52.110Z,98528.95
2019-01-18T11:29:56.538Z,98530.28
2019-01-18T11:33:00.974Z,98525.41
2019-01-18T11:36:05.681Z,98525.63
2019-01-18T11:39:10.445Z,98524.41
2019-01-18T11:42:15.170Z,98533.59
2019-01-18T11:45:19.966Z,98530.74
2019-01-18T11:48:24.740Z,98526.27
2019-01-18T11:51:29.175Z,98523.61
2019-01-18T11:54:33.894Z,98524.55
2019-01-18T11:57:38.622Z,98517.28
2019-01-18T12:00:43.050Z,98517.67
2019-01-18T12:03:47.777Z,98515.84
2019-01-18T12:06:52.212Z,98510.14
2019-01-18T12:09:56.978Z,98503.86
2019-01-18T12:13:01.460Z,98500.70
2019-01-18T12:16:06.293Z,98490.63
2019-01-18T12:19:10.733Z,98489.68
2019-01-18T12:22:15.547Z,98489.67
2019-01-18T12:25:19.977Z,98491.03
2019-01-18T12:28:24.413Z,98488.95
2019-01-18T12:31:29.124Z,98481.17
2019-01-18T12:34:33.854Z,98485.63
2019-01-18T12:37:38.592Z,98478.44
2019-01-18T12:40:43.022Z,98482.89
2019-01-18T12:43:47.744Z,98481.22
2019-01-18T12:46:52.185Z,98478.24
2019-01-18T12:49:56.621Z,98479.63
2019-01-18T12:53:01.531Z,98481.38
2019-01-18T12:56:06.352Z,98487.66
2019-01-18T12:59:11.086Z,98486.66
2019-01-18T13:02:15.823Z,98480.62
2019-01-18T13:05:25.000Z,98482.88
2019-01-18T13:08:29.886Z,98485.36
2019-01-18T13:11:34.318Z,98479.34
2019-01-18T13:14:38.751Z,98476.58
2019-01-18T13:17:43.186Z,98475.27
2019-01-18T13:20:47.610Z,98481.64
2019-01-18T13:23:52.317Z,98480.88
2019-01-18T13:26:56.749Z,98482.53
2019-01-18T13:30:01.203Z,98482.43
2019-01-18T13:33:06.410Z,98487.46
2019-01-18T13:36:12.915Z,98487.89
2019-01-18T13:39:17.603Z,98487.53
2019-01-18T13:42:22.333Z,98483.28
2019-01-18T13:45:27.073Z,98492.45
2019-01-18T13:48:31.502Z,98486.00
2019-01-18T13:51:36.221Z,98484.92
2019-01-18T13:54:40.948Z,98488.05
2019-01-18T13:57:45.453Z,98490.89
2019-01-18T14:00:50.210Z,98489.57
2019-01-18T14:03:54.720Z,98486.36
2019-01-18T14:06:59.465Z,98487.89
2019-01-18T14:10:08.844Z,98486.39
2019-01-18T14:13:13.229Z,98495.83
2019-01-18T14:16:17.654Z,98494.50
2019-01-18T14:19:22.381Z,98489.48
2019-01-18T14:22:27.114Z,98494.05
2019-01-18T14:25:31.838Z,98501.03
2019-01-18T14:28:36.575Z,98501.16
2019-01-18T14:31:41.005Z,98501.42
2019-01-18T14:34:45.726Z,98503.05
2019-01-18T14:37:50.556Z,98507.79
2019-01-18T14:40:55.061Z,98503.88
2019-01-18T14:43:59.500Z,98503.40
2019-01-18T14:47:04.239Z,98508.69
2019-01-18T14:50:13.527Z,98504.20
2019-01-18T14:53:19.349Z,98501.75
2019-01-18T14:56:24.061Z,98505.02
2019-01-18T14:59:28.501Z,98513.44
2019-01-18T15:02:33.218Z,98502.37
2019-01-18T15:05:37.655Z,98509.02
2019-01-18T15:08:42.087Z,98508.61
2019-01-18T15:11:46.520Z,98500.80
2019-01-18T15:14:51.221Z,98506.00
2019-01-18T15:17:56.055Z,98503.31
2019-01-18T15:21:00.493Z,98501.23
2019-01-18T15:24:05.270Z,98501.52
2019-01-18T15:27:10.037Z,98501.38
2019-01-18T15:30:19.315Z,98496.29
2019-01-18T15:33:23.748Z,98496.73
2019-01-18T15:36:28.186Z,98499.09
2019-01-18T15:39:32.616Z,98496.66
2019-01-18T15:42:37.380Z,98501.80
2019-01-18T15:45:41.820Z,98505.81
2019-01-18T15:48:46.255Z,98503.26
2019-01-18T15:51:50.686Z,98503.12
2019-01-18T15:54:55.125Z,98504.81
2019-01-18T15:57:59.625Z,98500.28
2019-01-18T16:01:04.437Z,98512.02
2019-01-18T16:04:08.876Z,98507.22
2019-01-18T16:07:13.591Z,98506.94
2019-01-18T16:10:18.296Z,98499.91
2019-01-18T16:13:22.723Z,98496.95
2019-01-18T16:16:27.492Z,98502.79
2019-01-18T16:19:32.204Z,98500.48
2019-01-18T16:22:36.700Z,98502.67
2019-01-18T16:25:41.459Z,98504.91
2019-01-18T16:28:45.887Z,98504.36
2019-01-18T16:31:50.717Z,98500.34
2019-01-18T16:34:55.148Z,98502.74
2019-01-18T16:37:59.578Z,98498.97
2019-01-18T16:41:04.015Z,98499.22
2019-01-18T16:44:08.449Z,98499.28
2019-01-18T16:47:12.885Z,98502.62
2019-01-18T16:50:17.329Z,98493.38
2019-01-18T16:53:22.091Z,98495.77
2019-01-18T16:56:26.817Z,98489.98
2019-01-18T16:59:31.257Z,98491.81
2019-01-18T17:02:35.683Z,98485.59
2019-01-18T17:05:40.122Z,98490.73
2019-01-18T17:08:44.545Z,98488.83
2019-01-18T17:11:48.984Z,98492.91
2019-01-18T17:14:53.423Z,98497.63
2019-01-18T17:17:58.096Z,98491.47
2019-01-18T17:21:02.536Z,98484.15
2019-01-18T17:24:06.964Z,98485.58
2019-01-18T17:27:11.408Z,98482.66
2019-01-18T17:30:19.550Z,98483.31
2019-01-18T17:33:24.308Z,98487.48
2019-01-18T17:36:30.054Z,98485.67
2019-01-18T17:39:42.418Z,98485.98
2019-01-18T17:43:03.207Z,98481.91
2019-01-18T17:46:27.568Z,98484.84
2019-01-18T17:50:08.440Z,98482.63
2019-01-18T17:53:35.810Z,98475.60
2019-01-18T17:57:08.787Z,98482.84
2019-01-18T18:00:44.323Z,98485.27
2019-01-18T18:04:26.982Z,98479.88
2019-01-18T18:07:47.988Z,98484.77
2019-01-18T18:11:19.539Z,98482.97
2019-01-18T18:14:31.693Z,98487.59
2019-01-18T18:17:55.880Z,98483.95
2019-01-18T18:21:16.686Z,98482.63
2019-01-18T18:24:25.822Z,98475.92
2019-01-18T18:28:05.091Z,98479.19
2019-01-18T18:31:36.786Z,98478.59
2019-01-18T18:34:48.487Z,98474.83
2019-01-18T18:38:23.382Z,98472.38
2019-01-18T18:41:44.438Z,98472.78
2019-01-18T18:45:11.175Z,98466.65
2019-01-18T18:48:37.723Z,98470.95
2019-01-18T18:51:58.543Z,98466.28
2019-01-18T18:55:28.563Z,98464.54
2019-01-18T18:58:58.271Z,98458.58
2019-01-18T19:02:29.931Z,98456.05
2019-01-18T19:06:07.227Z,98453.30
2019-01-18T19:09:55.606Z,98454.13
2019-01-18T19:13:33.222Z,98456.19
2019-01-18T19:16:54.012Z,98447.25
2019-01-18T19:20:03.150Z,98438.29
2019-01-18T19:23:39.492Z,98449.56
2019-01-18T19:27:08.954Z,98443.06
2019-01-18T19:30:37.685Z,98440.84
2019-01-18T19:33:55.536Z,98433.45
2019-01-18T19:37:10.925Z,98433.64
2019-01-18T19:40:31.917Z,98426.73
2019-01-18T19:44:02.062Z,98435.48
2019-01-18T19:47:14.353Z,98431.01
2019-01-18T19:50:52.161Z,98428.89
2019-01-18T19:54:04.254Z,98432.31
2019-01-18T19:57:34.319Z,98432.31
2019-01-18T20:00:45.890Z,98431.18
2019-01-18T20:04:14.722Z,98426.91
2019-01-18T20:07:42.148Z,98431.59
2019-01-18T20:11:09.296Z,98424.59
2019-01-18T20:14:39.391Z,98431.91
2019-01-18T20:18:20.301Z,98430.39
2019-01-18T20:21:51.775Z,98423.61
2019-01-18T20:25:31.419Z,98424.02
2019-01-18T20:28:55.664Z,98428.23
2019-01-18T20:32:30.539Z,98430.69
2019-01-18T20:35:42.343Z,98430.61
2019-01-18T20:39:04.274Z,98438.14
2019-01-18T20:42:22.329Z,98429.78
2019-01-18T20:46:01.472Z,98428.37
2019-01-18T20:49:28.303Z,98428.45
2019-01-18T20:52:46.549Z,98426.35
2019-01-18T20:56:27.731Z,98431.31
2019-01-18T20:59:53.331Z,98428.17
2019-01-18T21:03:20.919Z,98430.91
2019-01-18T21:06:53.911Z,98426.80
2019-01-18T21:10:31.830Z,98435.39
2019-01-18T21:14:02.462Z,98432.32
2019-01-18T21:17:34.036Z,98430.59
2019-01-18T21:20:46.330Z,98434.02
2019-01-18T21:24:17.931Z,98432.46
2019-01-18T21:27:39.007Z,98437.02
2019-01-18T21:31:29.613Z,98441.13
2019-01-18T21:34:56.504Z,98441.39
2019-01-18T21:38:14.437Z,98439.49
2019-01-18T21:41:29.239Z,98437.52
2019-01-18T21:45:09.848Z,98437.31
2019-01-18T21:48:37.846Z,98433.36
2019-01-18T21:52:17.181Z,98437.73
2019-01-18T21:55:41.464Z,98436.48
2019-01-18T21:58:50.885Z,98434.17
2019-01-18T22:02:19.506Z,98430.68
2019-01-18T22:06:03.084Z,98434.34
2019-01-18T22:09:18.399Z,98437.94
2019-01-18T22:13:08.279Z,98433.93
2019-01-18T22:16:38.111Z,98434.95
2019-01-18T22:20:08.149Z,98434.10
2019-01-18T22:23:23.122Z,98437.70
2019-01-18T22:26:56.504Z,98435.74
2019-01-18T22:30:20.498Z,98434.17
2019-01-18T22:33:47.755Z,98439.19
2019-01-18T22:37:30.172Z,98438.25
2019-01-18T22:40:44.805Z,98441.07
2019-01-18T22:44:14.536Z,98435.10
2019-01-18T22:47:26.582Z,98443.68
2019-01-18T22:50:57.901Z,98432.91
2019-01-18T22:54:37.426Z,98437.35
2019-01-18T22:58:04.791Z,98438.19
2019-01-18T23:01:49.162Z,98430.16
2019-01-18T23:05:10.111Z,98434.88
2019-01-18T23:08:40.810Z,98432.95
2019-01-18T23:12:14.119Z,98428.78
2019-01-18T23:15:49.054Z,98428.20
2019-01-18T23:19:06.582Z,98424.22
2019-01-18T23:22:48.434Z,98419.86
2019-01-18T23:26:00.520Z,98412.61
2019-01-18T23:29:19.162Z,98415.10
2019-01-18T23:32:52.734Z,98412.05
2019-01-18T23:36:25.913Z,98410.06
2019-01-18T23:40:04.773Z,98415.00
2019-01-18T23:43:29.069Z,98408.13
2019-01-18T23:46:44.546Z,98400.03
2019-01-18T23:50:10.690Z,98397.28
2019-01-18T23:53:44.159Z,98396.94
2019-01-18T23:57:17.699Z,98392.84
